Terminal Aerodrome Forecast
Issued by NWS Pocatello, ID

Home | Current Version | Previous Version | Text Only | Print | Product List | Glossary On
Versions: 1 2 3 4 5 6 7 8 9 10 11 12
378
FTUS45 KPIH 181120
TAFPIH
TAF
KPIH 181120Z 1812/1912 VRB05KT P6SM FEW200
     FM182000 23010KT P6SM SKC
     FM190200 18006KT P6SM SKC=

USA.gov is the U.S. government's official web portal to all federal, state and local government web resources and services.